Airfield :
LOGIN :

Register | Disclaimer

   EN    FR    IT 

 










Legend :    VFR   Marginal VFR   IFR   Intensive IFR   Very Intensive IFR
Visi :
Ceiling :
>= 8 km
>= 3000ft
5 to 8 km
1000 to 3000 ft
1500m to 5 km
500 to 1000 ft
800 to 1500m
200 to 500 ft
< 800m
< 200 ft
Symbols :   Thunderstorms  Fog  Heavy snow  Heavy precipitations  Wind > 20 kt
SIGMETs :     Misc.  Thunderstorms  Icing  Turbulence  Mountain Waves  Volcanic Ashes







- Airport Elevation : 333 ft


LIPL - Ghedi Brescia (Mil)

CURRENT METAR :
  • 152255Z 07005KT CAVOK 04/02 Q1032 RMK SKC VIS MIN 9999 WIND THR31 07005KT WIND THR13 08003KT BLU

EXPIRED METARs :
  • 152155Z 06008KT CAVOK 04/02 Q1032 RMK SKC VIS MIN 9999 WIND THR31 05005KT WIND THR13 06007KT BLU
  • 152055Z 05006KT CAVOK 05/02 Q1032 RMK SKC VIS MIN 9999 WIND THR31 04005KT WIND THR13 05005KT BLU

TAF TAF LIPL
Valid from the 16 at 00:00 until the 16 at 09:00 UTC


152300Z 1600/1609 VRB05KT CAVOK
TEMPO 1600/1605 5000 BR
No reported NOTAMs for that airfield.



MET'MAP, your aeronautical weather chart ! - Copyright ORBIFLY December 2007 - Disclaimer

ORBIFLY MET'MAP TEAM :

Programming & Development : Alexandra Zaïnal
Concept & Development : Baudouin d'Aumeries
Co-Development & Prog : Marc-Olivier Méhu
Technical & hardware support : Manuel Goepfert

Contact : metmap@orbifly.com




SOURCES & CREDITS :

   NOAA